Terminal Aerodrome Forecast
Issued by NWS Cleveland, OH

Home | Current Version | Previous Version | Text Only | Print | Product List | Glossary Off
Versions: 1 2 3 4 5 6 7 8 9 10 11 12

000
FTUS41 KCLE 310533
TAFERI
TAF
KERI 310533Z 3106/0106 19005KT P6SM BKN150
      TEMPO 3111/3113 5SM BR
     FM311500 23008KT P6SM SCT050
     FM311800 28010KT P6SM FEW050
     FM010000 19005KT P6SM SKC=

USA.gov is the U.S. government's official web portal to all federal, state and local government web resources and services.